createdAt,value
2017-05-26T00:00:56.934Z,1016.74
2017-05-26T00:01:56.944Z,1016.73
2017-05-26T00:02:56.948Z,1016.73
2017-05-26T00:03:56.957Z,1016.76
2017-05-26T00:04:56.965Z,1016.74
2017-05-26T00:05:56.973Z,1016.72
2017-05-26T00:06:56.980Z,1016.73
2017-05-26T00:07:56.989Z,1016.7
2017-05-26T00:08:56.999Z,1016.71
2017-05-26T00:09:57.005Z,1016.77
2017-05-26T00:10:57.015Z,1016.72
2017-05-26T00:11:57.022Z,1016.77
2017-05-26T00:12:57.029Z,1016.7
2017-05-26T00:13:57.037Z,1016.71
2017-05-26T00:14:57.045Z,1016.75
2017-05-26T00:15:57.054Z,1016.72
2017-05-26T00:16:57.062Z,1016.73
2017-05-26T00:17:57.069Z,1016.69
2017-05-26T00:18:57.078Z,1016.68
2017-05-26T00:19:57.084Z,1016.69
2017-05-26T00:20:57.092Z,1016.69
2017-05-26T00:21:57.101Z,1016.67
2017-05-26T00:22:57.110Z,1016.69
2017-05-26T00:23:57.118Z,1016.66
2017-05-26T00:24:57.125Z,1016.66
2017-05-26T00:25:57.133Z,1016.63
2017-05-26T00:26:57.141Z,1016.61
2017-05-26T00:27:57.148Z,1016.6
2017-05-26T00:28:57.156Z,1016.6
2017-05-26T00:29:57.165Z,1016.61
2017-05-26T00:30:57.174Z,1016.61
2017-05-26T00:31:57.180Z,1016.6
2017-05-26T00:32:57.189Z,1016.63
2017-05-26T00:33:57.196Z,1016.6
2017-05-26T00:34:57.207Z,1016.61
2017-05-26T00:35:57.213Z,1016.59
2017-05-26T00:36:57.222Z,1016.61
2017-05-26T00:37:57.229Z,1016.56
2017-05-26T00:38:57.237Z,1016.58
2017-05-26T00:39:57.246Z,1016.61
2017-05-26T00:40:57.254Z,1016.58
2017-05-26T00:41:57.312Z,1016.56
2017-05-26T00:42:57.269Z,1016.56
2017-05-26T00:43:57.279Z,1016.54
2017-05-26T00:44:57.285Z,1016.56
2017-05-26T00:45:57.294Z,1016.56
2017-05-26T00:46:57.301Z,1016.55
2017-05-26T00:47:57.310Z,1016.55
2017-05-26T00:48:57.316Z,1016.55
2017-05-26T00:49:57.325Z,1016.52
2017-05-26T00:50:57.333Z,1016.53
2017-05-26T00:51:57.341Z,1016.55
2017-05-26T00:52:57.349Z,1016.52
2017-05-26T00:53:57.406Z,1016.5
2017-05-26T00:54:57.367Z,1016.55
2017-05-26T00:55:57.372Z,1016.5
2017-05-26T00:56:57.381Z,1016.49
2017-05-26T00:57:57.390Z,1016.49
2017-05-26T00:58:57.395Z,1016.5
2017-05-26T00:59:57.405Z,1016.5
2017-05-26T01:00:57.412Z,1016.43
2017-05-26T01:01:57.420Z,1016.49
2017-05-26T01:02:57.427Z,1016.48
2017-05-26T01:03:57.436Z,1016.48
2017-05-26T01:04:57.444Z,1016.52
2017-05-26T01:05:57.453Z,1016.52
2017-05-26T01:06:57.460Z,1016.54
2017-05-26T01:07:57.468Z,1016.58
2017-05-26T01:08:57.476Z,1016.55
2017-05-26T01:09:57.484Z,1016.56
2017-05-26T01:10:57.492Z,1016.59
2017-05-26T01:11:57.500Z,1016.54
2017-05-26T01:12:57.507Z,1016.55
2017-05-26T01:13:57.515Z,1016.58
2017-05-26T01:14:57.522Z,1016.58
2017-05-26T01:15:57.531Z,1016.54
2017-05-26T01:16:57.540Z,1016.57
2017-05-26T01:17:57.549Z,1016.54
2017-05-26T01:18:57.555Z,1016.55
2017-05-26T01:19:57.562Z,1016.54
2017-05-26T01:20:57.571Z,1016.59
2017-05-26T01:21:57.580Z,1016.56
2017-05-26T01:22:57.587Z,1016.56
2017-05-26T01:23:57.644Z,1016.56
2017-05-26T01:24:57.605Z,1016.51
2017-05-26T01:25:57.611Z,1016.57
2017-05-26T01:26:57.618Z,1016.55
2017-05-26T01:27:57.627Z,1016.57
2017-05-26T01:28:57.683Z,1016.56
2017-05-26T01:29:57.641Z,1016.61
2017-05-26T01:30:57.649Z,1016.6
2017-05-26T01:31:57.658Z,1016.61
2017-05-26T01:32:57.667Z,1016.6
2017-05-26T01:33:57.674Z,1016.57
2017-05-26T01:34:57.682Z,1016.56
2017-05-26T01:35:57.689Z,1016.55
2017-05-26T01:36:57.700Z,1016.55
2017-05-26T01:37:57.754Z,1016.59
2017-05-26T01:38:57.713Z,1016.57
2017-05-26T01:39:57.722Z,1016.58
2017-05-26T01:40:57.729Z,1016.57
2017-05-26T01:41:57.736Z,1016.59
2017-05-26T01:42:57.744Z,1016.59
2017-05-26T01:43:57.802Z,1016.58
2017-05-26T01:44:57.761Z,1016.57
2017-05-26T01:45:58.068Z,1016.6
2017-05-26T01:46:57.777Z,1016.61
2017-05-26T01:47:57.785Z,1016.6
2017-05-26T01:48:57.794Z,1016.58
2017-05-26T01:49:57.800Z,1016.57
2017-05-26T01:50:57.809Z,1016.58
2017-05-26T01:51:57.815Z,1016.57
2017-05-26T01:52:57.823Z,1016.6
2017-05-26T01:53:57.832Z,1016.57
2017-05-26T01:54:57.847Z,1016.58
2017-05-26T01:55:57.846Z,1016.59
2017-05-26T01:56:57.855Z,1016.62
2017-05-26T01:57:57.862Z,1016.66
2017-05-26T01:58:57.871Z,1016.62
2017-05-26T01:59:57.878Z,1016.63
2017-05-26T02:00:57.887Z,1016.63
2017-05-26T02:01:57.896Z,1016.64
2017-05-26T02:02:57.903Z,1016.65
2017-05-26T02:03:57.910Z,1016.64
2017-05-26T02:04:57.927Z,1016.64
2017-05-26T02:05:57.927Z,1016.66
2017-05-26T02:06:57.935Z,1016.7
2017-05-26T02:07:57.944Z,1016.72
2017-05-26T02:08:57.950Z,1016.69
2017-05-26T02:09:57.959Z,1016.71
2017-05-26T02:10:57.967Z,1016.67
2017-05-26T02:11:57.974Z,1016.67
2017-05-26T02:12:57.983Z,1016.66
2017-05-26T02:13:57.990Z,1016.67
2017-05-26T02:14:57.997Z,1016.68
2017-05-26T02:15:58.005Z,1016.68
2017-05-26T02:16:58.014Z,1016.71
2017-05-26T02:17:58.022Z,1016.68
2017-05-26T02:18:58.029Z,1016.7
2017-05-26T02:19:58.038Z,1016.69
2017-05-26T02:20:58.046Z,1016.66
2017-05-26T02:21:58.054Z,1016.7
2017-05-26T02:22:58.061Z,1016.73
2017-05-26T02:23:58.068Z,1016.72
2017-05-26T02:24:58.078Z,1016.71
2017-05-26T02:25:58.085Z,1016.72
2017-05-26T02:26:58.142Z,1016.7
2017-05-26T02:27:58.100Z,1016.68
2017-05-26T02:28:58.108Z,1016.66
2017-05-26T02:29:58.117Z,1016.66
2017-05-26T02:30:58.124Z,1016.68
2017-05-26T02:31:58.131Z,1016.62
2017-05-26T02:32:58.239Z,1016.67
2017-05-26T02:33:58.148Z,1016.63
2017-05-26T02:34:58.155Z,1016.64
2017-05-26T02:35:58.162Z,1016.63
2017-05-26T02:36:58.170Z,1016.65
2017-05-26T02:37:58.179Z,1016.65
2017-05-26T02:38:58.188Z,1016.69
2017-05-26T02:39:58.196Z,1016.65
2017-05-26T02:40:58.202Z,1016.65
2017-05-26T02:41:58.212Z,1016.68
2017-05-26T02:42:58.220Z,1016.66
2017-05-26T02:43:58.227Z,1016.66
2017-05-26T02:44:58.235Z,1016.66
2017-05-26T02:45:58.244Z,1016.65
2017-05-26T02:46:58.249Z,1016.67
2017-05-26T02:47:58.258Z,1016.66
2017-05-26T02:48:58.266Z,1016.71
2017-05-26T02:49:58.274Z,1016.72
2017-05-26T02:50:58.280Z,1016.69
2017-05-26T02:51:58.289Z,1016.69
2017-05-26T02:52:58.299Z,1016.69
2017-05-26T02:53:58.304Z,1016.74
2017-05-26T02:54:58.313Z,1016.72
2017-05-26T02:55:58.319Z,1016.73
2017-05-26T02:56:58.329Z,1016.74
2017-05-26T02:57:58.334Z,1016.76
2017-05-26T02:58:58.343Z,1016.79
2017-05-26T02:59:58.351Z,1016.75
2017-05-26T03:00:58.359Z,1016.75
2017-05-26T03:01:58.367Z,1016.76
2017-05-26T03:02:58.374Z,1016.75
2017-05-26T03:03:58.384Z,1016.74
2017-05-26T03:04:58.392Z,1016.75
2017-05-26T03:05:58.499Z,1016.77
2017-05-26T03:06:58.462Z,1016.77
2017-05-26T03:07:58.416Z,1016.75
2017-05-26T03:08:58.422Z,1016.76
2017-05-26T03:09:58.432Z,1016.78
2017-05-26T03:10:58.439Z,1016.79
2017-05-26T03:11:58.446Z,1016.78
2017-05-26T03:12:58.454Z,1016.8
2017-05-26T03:13:58.463Z,1016.83
2017-05-26T03:14:58.469Z,1016.8
2017-05-26T03:15:58.477Z,1016.79
2017-05-26T03:16:58.484Z,1016.79
2017-05-26T03:17:58.493Z,1016.79
2017-05-26T03:18:58.601Z,1016.81
2017-05-26T03:19:58.508Z,1016.81
2017-05-26T03:20:58.516Z,1016.86
2017-05-26T03:21:58.523Z,1016.85
2017-05-26T03:22:58.532Z,1016.85
2017-05-26T03:23:58.540Z,1016.87
2017-05-26T03:24:58.547Z,1016.84
2017-05-26T03:25:58.555Z,1016.86
2017-05-26T03:26:58.562Z,1016.85
2017-05-26T03:27:58.571Z,1016.86
2017-05-26T03:28:58.578Z,1016.87
2017-05-26T03:29:58.586Z,1016.83
2017-05-26T03:30:58.593Z,1016.84
2017-05-26T03:31:58.702Z,1016.82
2017-05-26T03:32:58.608Z,1016.79
2017-05-26T03:33:58.616Z,1016.83
2017-05-26T03:34:58.624Z,1016.83
2017-05-26T03:35:58.631Z,1016.84
2017-05-26T03:36:58.640Z,1016.81
2017-05-26T03:37:58.647Z,1016.81
2017-05-26T03:38:58.655Z,1016.79
2017-05-26T03:39:58.664Z,1016.78
2017-05-26T03:40:58.673Z,1016.8
2017-05-26T03:41:58.679Z,1016.78
2017-05-26T03:42:58.786Z,1016.78
2017-05-26T03:43:58.694Z,1016.76
2017-05-26T03:44:58.711Z,1016.79
2017-05-26T03:45:58.710Z,1016.79
2017-05-26T03:46:58.716Z,1016.79
2017-05-26T03:47:58.727Z,1016.75
2017-05-26T03:48:58.733Z,1016.8
2017-05-26T03:49:58.742Z,1016.78
2017-05-26T03:50:58.750Z,1016.77
2017-05-26T03:51:58.758Z,1016.78
2017-05-26T03:52:58.764Z,1016.76
2017-05-26T03:53:58.822Z,1016.79
2017-05-26T03:54:58.781Z,1016.78
2017-05-26T03:55:58.787Z,1016.8
2017-05-26T03:56:58.795Z,1016.83
2017-05-26T03:57:58.806Z,1016.83
2017-05-26T03:58:58.812Z,1016.81
2017-05-26T03:59:58.818Z,1016.86
2017-05-26T04:00:58.825Z,1016.85
2017-05-26T04:01:58.834Z,1016.85
2017-05-26T04:02:58.892Z,1016.84
2017-05-26T04:03:58.849Z,1016.87
2017-05-26T04:04:58.858Z,1016.87
2017-05-26T04:05:58.866Z,1016.85
2017-05-26T04:06:58.873Z,1016.81
2017-05-26T04:07:58.881Z,1016.83
2017-05-26T04:08:58.889Z,1016.79
2017-05-26T04:09:58.897Z,1016.8
2017-05-26T04:10:58.904Z,1016.84
2017-05-26T04:11:58.912Z,1016.78
2017-05-26T04:12:58.920Z,1016.82
2017-05-26T04:13:58.928Z,1016.83
2017-05-26T04:14:58.935Z,1016.78
2017-05-26T04:15:58.942Z,1016.79
2017-05-26T04:16:59.000Z,1016.78
2017-05-26T04:17:58.958Z,1016.79
2017-05-26T04:18:58.965Z,1016.78
2017-05-26T04:19:58.973Z,1016.8
2017-05-26T04:20:58.983Z,1016.81
2017-05-26T04:21:58.989Z,1016.87
2017-05-26T04:22:58.995Z,1016.85
2017-05-26T04:23:59.007Z,1016.85
2017-05-26T04:24:59.015Z,1016.84
2017-05-26T04:25:59.069Z,1016.84
2017-05-26T04:26:59.030Z,1016.8
2017-05-26T04:27:59.036Z,1016.79
2017-05-26T04:28:59.043Z,1016.82
2017-05-26T04:29:59.052Z,1016.83
2017-05-26T04:30:59.059Z,1016.84
2017-05-26T04:31:59.067Z,1016.87
2017-05-26T04:32:59.125Z,1016.88
2017-05-26T04:33:59.135Z,1016.87
2017-05-26T04:34:59.092Z,1016.87
2017-05-26T04:35:59.099Z,1016.91
2017-05-26T04:36:59.106Z,1016.93
2017-05-26T04:37:59.165Z,1016.95
2017-05-26T04:38:59.123Z,1016.97
2017-05-26T04:39:59.133Z,1016.95
2017-05-26T04:40:59.138Z,1016.98
2017-05-26T04:41:59.145Z,1016.95
2017-05-26T04:42:59.155Z,1016.97
2017-05-26T04:43:59.161Z,1017.01
2017-05-26T04:44:59.169Z,1016.96
2017-05-26T04:45:59.179Z,1016.95
2017-05-26T04:46:59.187Z,1016.99
2017-05-26T04:47:59.194Z,1017.13
2017-05-26T04:48:59.202Z,1017.29
2017-05-26T04:49:59.210Z,1017.35
2017-05-26T04:50:59.218Z,1017.43
2017-05-26T04:51:59.228Z,1017.46
2017-05-26T04:52:59.243Z,1017.53
2017-05-26T04:53:59.244Z,1017.54
2017-05-26T04:54:59.303Z,1017.53
2017-05-26T04:55:59.262Z,1017.52
2017-05-26T04:56:59.270Z,1017.55
2017-05-26T04:57:59.294Z,1017.52
2017-05-26T04:58:59.291Z,1017.52
2017-05-26T04:59:59.299Z,1017.54
2017-05-26T05:00:59.309Z,1017.5
2017-05-26T05:01:59.318Z,1017.49
2017-05-26T05:02:59.326Z,1017.47
2017-05-26T05:03:59.336Z,1017.49
2017-05-26T05:04:59.345Z,1017.52
2017-05-26T05:05:59.355Z,1017.51
2017-05-26T05:06:59.365Z,1017.51
2017-05-26T05:07:59.376Z,1017.5
2017-05-26T05:08:59.385Z,1017.54
2017-05-26T05:09:59.394Z,1017.54
2017-05-26T05:10:59.404Z,1017.51
2017-05-26T05:11:59.414Z,1017.53
2017-05-26T05:12:59.423Z,1017.53
2017-05-26T05:13:59.433Z,1017.56
2017-05-26T05:14:59.443Z,1017.54
2017-05-26T05:15:59.453Z,1017.53
2017-05-26T05:16:59.463Z,1017.55
2017-05-26T05:17:59.474Z,1017.59
2017-05-26T05:18:59.485Z,1017.59
2017-05-26T05:19:59.496Z,1017.57
2017-05-26T05:20:59.506Z,1017.57
2017-05-26T05:21:59.517Z,1017.59
2017-05-26T05:22:59.527Z,1017.54
2017-05-26T05:23:59.537Z,1017.59
2017-05-26T05:24:59.547Z,1017.6
2017-05-26T05:25:59.565Z,1017.66
2017-05-26T05:26:59.570Z,1017.64
2017-05-26T05:27:59.580Z,1017.7
2017-05-26T05:28:59.589Z,1017.71
2017-05-26T05:29:59.601Z,1017.75
2017-05-26T05:30:59.611Z,1017.73
2017-05-26T05:31:59.622Z,1017.75
2017-05-26T05:32:59.632Z,1017.74
2017-05-26T05:33:59.643Z,1017.8
2017-05-26T05:34:59.653Z,1017.76
2017-05-26T05:35:59.663Z,1017.75
2017-05-26T05:36:59.675Z,1017.79
2017-05-26T05:37:59.687Z,1017.79
2017-05-26T05:38:59.696Z,1017.81
2017-05-26T05:39:59.710Z,1017.79
2017-05-26T05:40:59.719Z,1017.82
2017-05-26T05:41:59.729Z,1017.85
2017-05-26T05:42:59.740Z,1017.88
2017-05-26T05:43:59.752Z,1017.85
2017-05-26T05:44:59.763Z,1017.9
2017-05-26T05:45:59.772Z,1017.92
2017-05-26T05:46:59.783Z,1017.99
2017-05-26T05:47:59.795Z,1017.92
2017-05-26T05:48:59.804Z,1018.01
2017-05-26T05:49:59.818Z,1018.01
2017-05-26T05:50:59.828Z,1018.05
2017-05-26T05:51:59.839Z,1018.07
2017-05-26T05:52:59.850Z,1018.11
2017-05-26T05:53:59.863Z,1018.18
2017-05-26T05:54:59.873Z,1018.17
2017-05-26T05:55:59.883Z,1018.2
2017-05-26T05:56:59.894Z,1018.16
2017-05-26T05:57:59.913Z,1018.2
2017-05-26T05:58:59.916Z,1018.24
2017-05-26T05:59:59.935Z,1018.23
2017-05-26T06:00:59.940Z,1018.24
2017-05-26T06:01:59.952Z,1018.27
2017-05-26T06:02:59.963Z,1018.24
2017-05-26T06:03:59.978Z,1018.25
2017-05-26T06:04:59.986Z,1018.3
2017-05-26T06:05:59.999Z,1018.41
2017-05-26T06:07:00.010Z,1018.29
2017-05-26T06:08:00.022Z,1018.36
2017-05-26T06:09:00.031Z,1018.38
2017-05-26T06:10:00.046Z,1018.35
2017-05-26T06:11:00.057Z,1018.41
2017-05-26T06:12:00.067Z,1018.41
2017-05-26T06:13:00.080Z,1018.43
2017-05-26T06:14:00.095Z,1018.47
2017-05-26T06:15:00.157Z,1018.48
2017-05-26T06:16:00.116Z,1018.57
2017-05-26T06:17:00.127Z,1018.53
2017-05-26T06:18:00.139Z,1018.53
2017-05-26T06:19:00.162Z,1018.66
2017-05-26T06:20:00.163Z,1018.67
2017-05-26T06:21:00.175Z,1018.74
2017-05-26T06:22:00.188Z,1018.74
2017-05-26T06:23:00.199Z,1018.72
2017-05-26T06:24:00.211Z,1018.82
2017-05-26T06:25:00.223Z,1018.81
2017-05-26T06:26:00.235Z,1018.87
2017-05-26T06:27:00.249Z,1018.87
2017-05-26T06:28:00.260Z,1018.94
2017-05-26T06:29:00.273Z,1019.02
2017-05-26T06:30:00.336Z,1019
2017-05-26T06:31:00.298Z,1019.07
2017-05-26T06:32:00.313Z,1019.14
2017-05-26T06:33:00.321Z,1019.23
2017-05-26T06:34:00.335Z,1019.27
2017-05-26T06:35:00.346Z,1019.3
2017-05-26T06:36:00.361Z,1019.28
2017-05-26T06:37:00.372Z,1019.18
2017-05-26T06:38:00.384Z,1019.14
2017-05-26T06:39:00.397Z,1019.24
2017-05-26T06:40:00.409Z,1019.36
2017-05-26T06:41:00.423Z,1019.46
2017-05-26T06:42:00.435Z,1019.54
2017-05-26T06:43:00.446Z,1019.59
2017-05-26T06:44:00.459Z,1019.49
2017-05-26T06:45:00.473Z,1019.48
2017-05-26T06:46:00.485Z,1019.53
2017-05-26T06:47:00.498Z,1019.59
2017-05-26T06:48:00.562Z,1019.49
2017-05-26T06:49:00.526Z,1019.52
2017-05-26T06:50:00.536Z,1019.5
2017-05-26T06:51:00.555Z,1019.38
2017-05-26T06:52:00.561Z,1019.34
2017-05-26T06:53:00.574Z,1019.45
2017-05-26T06:54:00.587Z,1019.5
2017-05-26T06:55:00.599Z,1019.48
2017-05-26T06:56:00.613Z,1019.44
2017-05-26T06:57:00.626Z,1019.42
2017-05-26T06:58:00.639Z,1019.38
2017-05-26T06:59:00.650Z,1019.29
2017-05-26T07:00:00.712Z,1019.28
2017-05-26T07:01:00.676Z,1019.26
2017-05-26T07:02:00.738Z,1019.22
2017-05-26T07:03:00.701Z,1019.26
2017-05-26T07:04:00.713Z,1019.18
2017-05-26T07:05:00.726Z,1019.16
2017-05-26T07:06:00.738Z,1019.15
2017-05-26T07:07:00.752Z,1019.12
2017-05-26T07:08:00.764Z,1019.1
2017-05-26T07:09:00.778Z,1019.04
2017-05-26T07:10:00.789Z,1019.02
2017-05-26T07:11:00.803Z,1019
2017-05-26T07:12:00.816Z,1019.01
2017-05-26T07:13:00.829Z,1019.02
2017-05-26T07:14:00.840Z,1018.98
2017-05-26T07:15:00.853Z,1018.88
2017-05-26T07:16:00.867Z,1018.72
2017-05-26T07:17:00.878Z,1018.66
2017-05-26T07:18:00.890Z,1018.67
2017-05-26T07:19:00.903Z,1018.69
2017-05-26T07:20:00.918Z,1018.61
2017-05-26T07:21:00.930Z,1018.49
2017-05-26T07:22:00.945Z,1018.41
2017-05-26T07:23:00.958Z,1018.45
2017-05-26T07:24:00.969Z,1018.45
2017-05-26T07:25:00.982Z,1018.41
2017-05-26T07:26:00.998Z,1018.4
2017-05-26T07:27:01.010Z,1018.34
2017-05-26T07:28:01.022Z,1018.31
2017-05-26T07:29:01.037Z,1018.3
2017-05-26T07:30:01.051Z,1018.28
2017-05-26T07:31:01.113Z,1018.23
2017-05-26T07:32:01.075Z,1018.2
2017-05-26T07:33:01.088Z,1018.14
2017-05-26T07:34:01.102Z,1018.15
2017-05-26T07:35:01.117Z,1018.07
2017-05-26T07:36:01.128Z,1017.89
2017-05-26T07:37:01.141Z,1017.62
2017-05-26T07:38:01.154Z,1017.45
2017-05-26T07:39:01.165Z,1017.32
2017-05-26T07:40:01.178Z,1017.34
2017-05-26T07:41:01.190Z,1017.31
2017-05-26T07:42:01.201Z,1017.28
2017-05-26T07:43:01.263Z,1017.3
2017-05-26T07:44:01.273Z,1017.27
2017-05-26T07:45:01.235Z,1017.2
2017-05-26T07:46:01.245Z,1017.21
2017-05-26T07:47:01.256Z,1017.22
2017-05-26T07:48:01.267Z,1017.18
2017-05-26T07:49:01.278Z,1017.12
2017-05-26T07:50:01.287Z,1017.16
2017-05-26T07:51:01.297Z,1017.16
2017-05-26T07:52:01.307Z,1017.17
2017-05-26T07:53:01.318Z,1017.2
2017-05-26T07:54:01.328Z,1017.17
2017-05-26T07:55:01.337Z,1017.23
2017-05-26T07:56:01.346Z,1017.2
2017-05-26T07:57:01.357Z,1017.23
2017-05-26T07:58:01.366Z,1017.22
2017-05-26T07:59:01.375Z,1017.18
2017-05-26T08:00:01.386Z,1017.13
2017-05-26T08:01:01.395Z,1017.21
2017-05-26T08:02:01.406Z,1017.12
2017-05-26T08:03:01.462Z,1017.19
2017-05-26T08:04:01.424Z,1017.13
2017-05-26T08:05:01.433Z,1017.09
2017-05-26T08:06:01.442Z,1017.09
2017-05-26T08:07:01.452Z,1017.06
2017-05-26T08:08:01.461Z,1017.06
2017-05-26T08:09:01.470Z,1017.15
2017-05-26T08:10:01.480Z,1017.09
2017-05-26T08:11:01.490Z,1017.06
2017-05-26T08:12:01.499Z,1017.04
2017-05-26T08:13:01.558Z,1017.06
2017-05-26T08:14:01.516Z,1017.08
2017-05-26T08:15:01.527Z,1017.1
2017-05-26T08:16:01.536Z,1017.1
2017-05-26T08:17:01.548Z,1017.12
2017-05-26T08:18:01.556Z,1017.1
2017-05-26T08:19:01.565Z,1017.1
2017-05-26T08:20:01.573Z,1017.07
2017-05-26T08:21:01.687Z,1017.06
2017-05-26T08:22:01.592Z,1017.08
2017-05-26T08:23:01.602Z,1017.1
2017-05-26T08:24:01.610Z,1017.09
2017-05-26T08:25:01.621Z,1017.04
2017-05-26T08:26:01.629Z,1017.06
2017-05-26T08:27:01.639Z,1017.05
2017-05-26T08:28:01.648Z,1017.05
2017-05-26T08:29:01.657Z,1017.05
2017-05-26T08:30:01.668Z,1017
2017-05-26T08:31:01.677Z,1017.02
2017-05-26T08:32:01.687Z,1017.03
2017-05-26T08:33:01.696Z,1017.04
2017-05-26T08:34:01.754Z,1017.03
2017-05-26T08:35:01.713Z,1017.02
2017-05-26T08:36:01.722Z,1017
2017-05-26T08:37:01.732Z,1017
2017-05-26T08:38:01.739Z,1016.94
2017-05-26T08:39:01.750Z,1016.93
2017-05-26T08:40:01.760Z,1016.96
2017-05-26T08:41:01.767Z,1016.95
2017-05-26T08:42:01.777Z,1016.96
2017-05-26T08:43:01.788Z,1016.95
2017-05-26T08:44:01.797Z,1016.9
2017-05-26T08:45:01.854Z,1016.95
2017-05-26T08:46:01.814Z,1016.97
2017-05-26T08:47:01.827Z,1016.91
2017-05-26T08:48:01.882Z,1016.89
2017-05-26T08:49:01.841Z,1016.9
2017-05-26T08:50:01.850Z,1016.88
2017-05-26T08:51:01.911Z,1016.87
2017-05-26T08:52:01.869Z,1016.86
2017-05-26T08:53:01.877Z,1016.86
2017-05-26T08:54:01.887Z,1016.85
2017-05-26T08:55:01.897Z,1016.82
2017-05-26T08:56:01.905Z,1016.81
2017-05-26T08:57:01.917Z,1016.79
2017-05-26T08:58:01.924Z,1016.8
2017-05-26T08:59:01.936Z,1016.75
2017-05-26T09:00:01.993Z,1016.75
2017-05-26T09:01:01.951Z,1016.7
2017-05-26T09:02:01.964Z,1016.75
2017-05-26T09:03:01.969Z,1016.72
2017-05-26T09:04:01.980Z,1016.72
2017-05-26T09:05:01.989Z,1016.68
2017-05-26T09:06:02.000Z,1016.72
2017-05-26T09:07:02.007Z,1016.68
2017-05-26T09:08:02.016Z,1016.72
2017-05-26T09:09:02.026Z,1016.74
2017-05-26T09:10:02.035Z,1016.68
2017-05-26T09:11:02.044Z,1016.68
2017-05-26T09:12:02.054Z,1016.65
2017-05-26T09:13:02.064Z,1016.68
2017-05-26T09:14:02.071Z,1016.68
2017-05-26T09:15:02.080Z,1016.65
2017-05-26T09:16:02.140Z,1016.65
2017-05-26T09:17:02.101Z,1016.65
2017-05-26T09:18:02.109Z,1016.65
2017-05-26T09:19:02.117Z,1016.66
2017-05-26T09:20:02.141Z,1016.69
2017-05-26T09:21:02.136Z,1016.67
2017-05-26T09:22:02.143Z,1016.66
2017-05-26T09:23:02.155Z,1016.62
2017-05-26T09:24:02.164Z,1016.6
2017-05-26T09:25:02.173Z,1016.59
2017-05-26T09:26:02.183Z,1016.57
2017-05-26T09:27:02.191Z,1016.62
2017-05-26T09:28:02.201Z,1016.63
2017-05-26T09:29:02.209Z,1016.6
2017-05-26T09:30:02.219Z,1016.59
2017-05-26T09:31:02.229Z,1016.6
2017-05-26T09:32:02.240Z,1016.57
2017-05-26T09:33:02.247Z,1016.51
2017-05-26T09:34:02.256Z,1016.51
2017-05-26T09:35:02.266Z,1016.5
2017-05-26T09:36:02.275Z,1016.49
2017-05-26T09:37:02.335Z,1016.5
2017-05-26T09:38:02.294Z,1016.45
2017-05-26T09:39:02.304Z,1016.47
2017-05-26T09:40:02.312Z,1016.5
2017-05-26T09:41:02.322Z,1016.46
2017-05-26T09:42:02.334Z,1016.5
2017-05-26T09:43:02.341Z,1016.49
2017-05-26T09:44:02.348Z,1016.53
2017-05-26T09:45:02.359Z,1016.59
2017-05-26T09:46:02.369Z,1016.57
2017-05-26T09:47:02.378Z,1016.55
2017-05-26T09:48:02.386Z,1016.52
2017-05-26T09:49:02.396Z,1016.54
2017-05-26T09:50:02.406Z,1016.52
2017-05-26T09:51:02.414Z,1016.49
2017-05-26T09:52:02.424Z,1016.49
2017-05-26T09:53:02.433Z,1016.47
2017-05-26T09:54:02.443Z,1016.44
2017-05-26T09:55:02.451Z,1016.44
2017-05-26T09:56:02.461Z,1016.45
2017-05-26T09:57:02.470Z,1016.42
2017-05-26T09:58:02.479Z,1016.38
2017-05-26T09:59:02.539Z,1016.42
2017-05-26T10:00:02.499Z,1016.41
2017-05-26T10:01:02.507Z,1016.42
2017-05-26T10:02:02.518Z,1016.42
2017-05-26T10:03:02.526Z,1016.41
2017-05-26T10:04:02.535Z,1016.4
2017-05-26T10:05:02.545Z,1016.36
2017-05-26T10:06:02.557Z,1016.37
2017-05-26T10:07:02.563Z,1016.34
2017-05-26T10:08:02.573Z,1016.33
2017-05-26T10:09:02.583Z,1016.29
2017-05-26T10:10:02.591Z,1016.29
2017-05-26T10:11:02.603Z,1016.32
2017-05-26T10:12:02.611Z,1016.33
2017-05-26T10:13:02.620Z,1016.33
2017-05-26T10:14:02.629Z,1016.33
2017-05-26T10:15:02.639Z,1016.26
2017-05-26T10:16:02.648Z,1016.32
2017-05-26T10:17:02.657Z,1016.29
2017-05-26T10:18:02.667Z,1016.31
2017-05-26T10:19:02.675Z,1016.29
2017-05-26T10:20:02.682Z,1016.28
2017-05-26T10:21:02.693Z,1016.27
2017-05-26T10:22:02.702Z,1016.29
2017-05-26T10:23:02.710Z,1016.29
2017-05-26T10:24:02.773Z,1016.24
2017-05-26T10:25:02.736Z,1016.2
2017-05-26T10:26:02.739Z,1016.2
2017-05-26T10:27:02.747Z,1016.26
2017-05-26T10:28:02.757Z,1016.21
2017-05-26T10:29:02.817Z,1016.21
2017-05-26T10:30:02.779Z,1016.19
2017-05-26T10:31:02.784Z,1016.16
2017-05-26T10:32:02.794Z,1016.18
2017-05-26T10:33:02.803Z,1016.12
2017-05-26T10:34:02.814Z,1016.19
2017-05-26T10:35:02.825Z,1016.21
2017-05-26T10:36:02.832Z,1016.17
2017-05-26T10:37:02.841Z,1016.16
2017-05-26T10:38:02.849Z,1016.14
2017-05-26T10:39:02.909Z,1016.14
2017-05-26T10:40:02.868Z,1016.07
2017-05-26T10:41:02.878Z,1016.06
2017-05-26T10:42:02.885Z,1016.11
2017-05-26T10:43:02.896Z,1016.1
2017-05-26T10:44:02.905Z,1016.11
2017-05-26T10:45:02.965Z,1016.1
2017-05-26T10:46:02.923Z,1016.11
2017-05-26T10:47:02.932Z,1016.13
2017-05-26T10:48:02.943Z,1016.1
2017-05-26T10:49:02.950Z,1016.16
2017-05-26T10:50:02.960Z,1016.17
2017-05-26T10:51:02.969Z,1016.13
2017-05-26T10:52:03.030Z,1016.12
2017-05-26T10:53:02.988Z,1016.15
2017-05-26T10:54:02.999Z,1016.12
2017-05-26T10:55:03.006Z,1016.08
2017-05-26T10:56:03.317Z,1016.11
2017-05-26T10:57:03.075Z,1016.05
2017-05-26T10:58:03.035Z,1016.03
2017-05-26T10:59:03.044Z,1016.02
2017-05-26T11:00:03.068Z,1016
2017-05-26T11:01:03.062Z,1015.97
2017-05-26T11:02:03.122Z,1015.95
2017-05-26T11:03:03.140Z,1015.93
2017-05-26T11:04:03.092Z,1015.88
2017-05-26T11:05:03.099Z,1015.92
2017-05-26T11:06:03.159Z,1015.98
2017-05-26T11:07:03.119Z,1015.96
2017-05-26T11:08:03.127Z,1015.83
2017-05-26T11:09:03.137Z,1015.88
2017-05-26T11:10:03.197Z,1015.88
2017-05-26T11:11:03.155Z,1015.94
2017-05-26T11:12:03.165Z,1015.86
2017-05-26T11:13:03.224Z,1015.88
2017-05-26T11:14:03.183Z,1015.91
2017-05-26T11:15:03.193Z,1015.92
2017-05-26T11:16:03.202Z,1015.9
2017-05-26T11:17:03.212Z,1015.87
2017-05-26T11:18:03.221Z,1015.9
2017-05-26T11:19:03.230Z,1015.83
2017-05-26T11:20:03.238Z,1015.87
2017-05-26T11:21:03.250Z,1015.82
2017-05-26T11:22:03.258Z,1015.75
2017-05-26T11:23:03.267Z,1015.75
2017-05-26T11:24:03.276Z,1015.67
2017-05-26T11:25:03.287Z,1015.64
2017-05-26T11:26:03.295Z,1015.6
2017-05-26T11:27:03.305Z,1015.56
2017-05-26T11:28:03.315Z,1015.64
2017-05-26T11:29:03.325Z,1015.6
2017-05-26T11:30:03.332Z,1015.59
2017-05-26T11:31:03.343Z,1015.56
2017-05-26T11:32:03.352Z,1015.55
2017-05-26T11:33:03.360Z,1015.54
2017-05-26T11:34:03.370Z,1015.54
2017-05-26T11:35:03.381Z,1015.57
2017-05-26T11:36:03.390Z,1015.58
2017-05-26T11:37:03.397Z,1015.56
2017-05-26T11:38:03.456Z,1015.54
2017-05-26T11:39:03.417Z,1015.48
2017-05-26T11:40:03.428Z,1015.51
2017-05-26T11:41:03.437Z,1015.48
2017-05-26T11:42:03.444Z,1015.45
2017-05-26T11:43:03.455Z,1015.43
2017-05-26T11:44:03.463Z,1015.44
2017-05-26T11:45:03.474Z,1015.37
2017-05-26T11:46:03.482Z,1015.36
2017-05-26T11:47:03.493Z,1015.36
2017-05-26T11:48:03.502Z,1015.38
2017-05-26T11:49:03.511Z,1015.37
2017-05-26T11:50:03.522Z,1015.32
2017-05-26T11:51:03.531Z,1015.35
2017-05-26T11:52:03.538Z,1015.34
2017-05-26T11:53:03.549Z,1015.37
2017-05-26T11:54:03.558Z,1015.45
2017-05-26T11:55:03.568Z,1015.38
2017-05-26T11:56:03.579Z,1015.33
2017-05-26T11:57:03.586Z,1015.37
2017-05-26T11:58:03.596Z,1015.26
2017-05-26T11:59:03.604Z,1015.31
2017-05-26T12:00:03.613Z,1015.31
2017-05-26T12:01:03.678Z,1015.32
2017-05-26T12:02:03.642Z,1015.24
2017-05-26T12:03:03.641Z,1015.3
2017-05-26T12:04:03.652Z,1015.22
2017-05-26T12:05:03.663Z,1015.28
2017-05-26T12:06:03.669Z,1015.31
2017-05-26T12:07:03.680Z,1015.23
2017-05-26T12:08:03.689Z,1015.28
2017-05-26T12:09:03.700Z,1015.21